Time;durP1;ratioP1;P1;durP2;ratioP2;P2;SDS_P1;SDS_P2;PMS_P1;PMS_P2;Temp;Humidity;BMP_temperature;BMP_pressure;BME280_temperature;BME280_humidity;BME280_pressure;Samples;Min_cycle;Max_cycle;Signal;HPM_P1;HPM_P2
2023/01/15 00:00:51;;;;;;;4.30;1.50;;;10.80;1.00;;;;;;5041330;28;20830;-55
2023/01/15 00:03:17;;;;;;;1.20;1.10;;;10.80;1.00;;;;;;5046961;28;20467;-54
2023/01/15 00:05:43;;;;;;;1.10;1.00;;;10.90;1.00;;;;;;5042419;28;20469;-55
2023/01/15 00:08:08;;;;;;;0.80;0.60;;;10.90;1.00;;;;;;5039491;28;20471;-56
2023/01/15 00:10:34;;;;;;;1.23;1.10;;;11.10;1.00;;;;;;5038512;28;20210;-56
2023/01/15 00:13:00;;;;;;;0.70;0.70;;;11.30;1.00;;;;;;5040029;28;20196;-55
2023/01/15 00:15:25;;;;;;;0.30;0.30;;;11.40;1.00;;;;;;5041912;28;20984;-55
2023/01/15 00:17:51;;;;;;;0.40;0.40;;;11.60;1.00;;;;;;5044352;28;20195;-57
2023/01/15 00:20:17;;;;;;;0.57;0.40;;;11.80;1.00;;;;;;5047857;28;20273;-54
2023/01/15 00:22:42;;;;;;;1.03;0.77;;;12.10;1.00;;;;;;5048597;28;20187;-55
2023/01/15 00:27:55;;;;;;;0.37;0.30;;;12.20;1.00;;;;;;5039331;28;20214;-55
2023/01/15 00:30:23;;;;;;;0.83;0.47;;;12.20;1.00;;;;;;5038331;28;20517;-56
2023/01/15 00:32:48;;;;;;;0.80;0.50;;;12.30;1.00;;;;;;5046189;28;20429;-57
2023/01/15 00:35:17;;;;;;;0.43;0.30;;;12.40;1.00;;;;;;5042687;28;20451;-55
2023/01/15 00:37:42;;;;;;;1.03;0.83;;;12.40;1.00;;;;;;5037522;28;20668;-54
2023/01/15 00:40:08;;;;;;;1.07;0.97;;;12.20;1.00;;;;;;5038998;28;20538;-56
2023/01/15 00:42:34;;;;;;;1.00;0.90;;;11.90;1.00;;;;;;5039479;28;20203;-56
2023/01/15 00:45:07;;;;;;;1.00;1.00;;;11.70;1.00;;;;;;5039113;28;20953;-55
2023/01/15 00:47:32;;;;;;;2.43;1.10;;;11.50;1.00;;;;;;5042403;28;20258;-55
2023/01/15 00:49:58;;;;;;;1.83;1.30;;;11.40;1.00;;;;;;5044712;28;20547;-56
2023/01/15 00:52:23;;;;;;;1.40;1.10;;;11.30;1.00;;;;;;5044549;28;20192;-55
2023/01/15 00:54:49;;;;;;;1.13;1.03;;;11.30;1.00;;;;;;5046754;28;20320;-56
2023/01/15 00:57:14;;;;;;;1.00;0.80;;;11.30;1.00;;;;;;5044168;28;20209;-55
2023/01/15 00:59:40;;;;;;;1.60;1.30;;;11.30;1.00;;;;;;5043132;28;20822;-55
2023/01/15 01:02:06;;;;;;;1.03;0.93;;;11.30;1.00;;;;;;5045049;28;20713;-54
2023/01/15 01:04:31;;;;;;;1.20;1.10;;;11.30;1.00;;;;;;5044381;28;20267;-55
2023/01/15 01:06:57;;;;;;;2.40;1.20;;;11.30;1.00;;;;;;5038861;28;20254;-55
2023/01/15 01:09:22;;;;;;;1.13;1.00;;;11.30;1.00;;;;;;5040394;28;20199;-55
2023/01/15 01:11:49;;;;;;;0.93;0.93;;;11.30;1.00;;;;;;5039957;28;20204;-55
2023/01/15 01:14:14;;;;;;;1.07;0.97;;;11.40;1.00;;;;;;5035496;28;20192;-57
2023/01/15 01:16:41;;;;;;;1.27;1.17;;;11.40;1.00;;;;;;5034836;28;20465;-55
2023/01/15 01:19:10;;;;;;;0.87;0.87;;;11.40;1.00;;;;;;5037264;28;20328;-55
2023/01/15 01:21:37;;;;;;;1.67;0.83;;;11.40;1.00;;;;;;5035659;28;20464;-56
2023/01/15 01:24:04;;;;;;;0.80;0.80;;;11.50;1.00;;;;;;5035008;28;20456;-55
2023/01/15 01:26:30;;;;;;;1.07;0.73;;;11.50;1.00;;;;;;5034463;28;20986;-55
2023/01/15 01:28:56;;;;;;;1.00;0.90;;;11.60;1.00;;;;;;5034834;28;20445;-55
2023/01/15 01:31:23;;;;;;;0.93;0.93;;;11.50;1.00;;;;;;5034720;28;20517;-56
2023/01/15 01:33:50;;;;;;;0.80;0.80;;;11.60;1.00;;;;;;5035733;28;20953;-56
2023/01/15 01:36:16;;;;;;;0.77;0.77;;;11.50;1.00;;;;;;5037207;28;20458;-56
2023/01/15 01:38:42;;;;;;;1.20;0.90;;;11.60;1.00;;;;;;5035527;28;20424;-56
2023/01/15 01:41:07;;;;;;;1.10;0.90;;;11.60;1.00;;;;;;5036376;28;20498;-56
2023/01/15 01:43:56;;;;;;;2.70;0.93;;;11.60;1.00;;;;;;5034525;28;20219;-55
2023/01/15 01:46:23;;;;;;;1.23;1.00;;;11.60;1.00;;;;;;5033356;28;20217;-55
2023/01/15 01:48:54;;;;;;;0.97;0.93;;;11.60;1.00;;;;;;5034009;28;20578;-55
2023/01/15 01:51:23;;;;;;;1.73;1.23;;;11.60;1.00;;;;;;5035303;28;20456;-54
2023/01/15 01:53:49;;;;;;;1.20;1.07;;;11.60;1.00;;;;;;5035533;28;20581;-56
2023/01/15 01:56:17;;;;;;;2.13;1.17;;;11.70;1.00;;;;;;5034801;28;20518;-55
2023/01/15 01:58:47;;;;;;;1.60;1.50;;;11.70;1.00;;;;;;5037277;28;20509;-54
2023/01/15 02:01:12;;;;;;;1.70;1.60;;;11.70;1.00;;;;;;5033818;28;20951;-54
2023/01/15 02:03:38;;;;;;;1.90;1.47;;;11.70;1.00;;;;;;5035070;28;20447;-55
2023/01/15 02:06:08;;;;;;;1.93;1.83;;;11.70;1.00;;;;;;5032808;28;20720;-55
2023/01/15 02:08:38;;;;;;;2.60;2.40;;;11.70;1.00;;;;;;5036001;28;20442;-54
2023/01/15 02:11:04;;;;;;;2.73;2.53;;;11.60;1.00;;;;;;5035637;28;20884;-55
2023/01/15 02:13:39;;;;;;;2.33;2.13;;;11.70;1.00;;;;;;5040396;28;20431;-55
2023/01/15 02:16:26;;;;;;;2.50;2.40;;;11.60;1.00;;;;;;5047001;28;20470;-54
2023/01/15 02:19:12;;;;;;;2.57;2.40;;;11.60;1.00;;;;;;5042268;28;20822;-56
2023/01/15 02:22:01;;;;;;;2.93;2.73;;;11.40;1.00;;;;;;5034526;28;20454;-53
2023/01/15 02:24:45;;;;;;;2.57;2.37;;;11.40;1.00;;;;;;5034591;28;20454;-56
2023/01/15 02:27:23;;;;;;;3.03;2.20;;;11.60;1.00;;;;;;5035870;28;20483;-54
2023/01/15 02:29:51;;;;;;;2.60;2.40;;;11.60;1.00;;;;;;5034109;28;20451;-54
2023/01/15 02:32:30;;;;;;;2.80;2.60;;;11.60;1.00;;;;;;5034930;28;20445;-54
2023/01/15 02:35:02;;;;;;;2.73;2.53;;;11.70;1.00;;;;;;5045537;28;20412;-54
2023/01/15 02:37:31;;;;;;;2.90;2.70;;;11.70;1.00;;;;;;5047166;28;20456;-54
2023/01/15 02:39:59;;;;;;;2.17;2.00;;;11.70;1.00;;;;;;5048587;28;20477;-54
2023/01/15 02:42:28;;;;;;;2.33;2.10;;;11.60;1.00;;;;;;5052501;28;20426;-54
2023/01/15 02:44:58;;;;;;;2.10;2.00;;;11.80;1.00;;;;;;5042632;28;20978;-53
2023/01/15 02:47:27;;;;;;;3.07;2.40;;;11.70;1.00;;;;;;5036695;28;20445;-54
2023/01/15 02:49:56;;;;;;;2.90;2.10;;;11.60;1.00;;;;;;5036030;28;20483;-55
2023/01/15 02:52:30;;;;;;;2.40;2.20;;;11.60;1.00;;;;;;5036723;28;20430;-55
2023/01/15 02:55:04;;;;;;;2.10;1.90;;;11.70;1.00;;;;;;5038303;28;20443;-56
2023/01/15 02:57:33;;;;;;;1.60;1.50;;;11.70;1.00;;;;;;5038048;28;20456;-54
2023/01/15 03:00:04;;;;;;;1.70;1.60;;;11.70;1.00;;;;;;5037678;28;20851;-55
2023/01/15 03:02:35;;;;;;;1.50;1.40;;;11.60;1.00;;;;;;5036749;28;20449;-55
2023/01/15 03:05:10;;;;;;;1.60;1.50;;;11.60;1.00;;;;;;5040939;28;20459;-56
2023/01/15 03:07:39;;;;;;;2.23;1.90;;;11.60;1.00;;;;;;5041218;28;20674;-55
2023/01/15 03:10:06;;;;;;;1.50;1.40;;;11.50;1.00;;;;;;5052222;28;20510;-54
2023/01/15 03:13:01;;;;;;;2.17;1.80;;;11.60;1.00;;;;;;5050626;28;20473;-55
2023/01/15 03:18:20;;;;;;;1.30;1.20;;;11.50;1.00;;;;;;5051435;28;20503;-54
2023/01/15 03:20:50;;;;;;;1.57;1.47;;;11.50;1.00;;;;;;5051110;28;20436;-56
2023/01/15 03:23:21;;;;;;;1.30;1.13;;;11.60;1.00;;;;;;5039484;28;20456;-54
2023/01/15 03:25:48;;;;;;;1.37;1.20;;;11.70;1.00;;;;;;5039751;28;20476;-55
2023/01/15 03:28:20;;;;;;;1.87;1.40;;;11.70;1.00;;;;;;5037681;28;20429;-56
2023/01/15 03:30:46;;;;;;;1.60;1.50;;;11.60;1.00;;;;;;5037315;28;20423;-55
2023/01/15 03:33:14;;;;;;;1.40;1.30;;;11.60;1.00;;;;;;5040150;28;20449;-55
2023/01/15 03:35:57;;;;;;;0.93;0.90;;;11.70;1.00;;;;;;5038687;28;20199;-55
2023/01/15 03:38:29;;;;;;;1.10;0.90;;;11.70;1.00;;;;;;5047356;28;20448;-55
2023/01/15 03:41:00;;;;;;;0.70;0.70;;;11.70;1.00;;;;;;5037949;28;20490;-56
2023/01/15 03:43:49;;;;;;;1.03;0.93;;;11.90;1.00;;;;;;5039109;28;20453;-55
2023/01/15 03:46:27;;;;;;;1.00;0.73;;;11.90;1.00;;;;;;5039610;28;20445;-55
2023/01/15 03:49:12;;;;;;;2.37;0.77;;;12.00;1.00;;;;;;5035683;28;20501;-54
2023/01/15 03:51:53;;;;;;;1.00;0.80;;;12.30;1.00;;;;;;5023997;28;20491;-55
2023/01/15 03:54:37;;;;;;;0.30;0.30;;;12.40;1.00;;;;;;5038215;28;20481;-55
2023/01/15 03:57:13;;;;;;;0.60;0.60;;;12.50;1.00;;;;;;5037891;28;20465;-54
2023/01/15 03:59:49;;;;;;;0.50;0.50;;;12.70;1.00;;;;;;5037258;28;20428;-55
2023/01/15 04:02:17;;;;;;;0.40;0.40;;;12.70;1.00;;;;;;5038439;28;20437;-55
2023/01/15 04:04:44;;;;;;;0.50;0.30;;;12.60;1.00;;;;;;5037704;28;20464;-55
2023/01/15 04:07:10;;;;;;;0.60;0.30;;;12.60;1.00;;;;;;5038161;28;20437;-54
2023/01/15 04:09:38;;;;;;;0.40;0.30;;;12.80;1.00;;;;;;5037044;28;20489;-55
2023/01/15 04:12:04;;;;;;;0.73;0.30;;;12.80;1.00;;;;;;5037547;28;20457;-56
2023/01/15 04:14:30;;;;;;;0.30;0.30;;;12.80;1.00;;;;;;5052679;28;20933;-54
2023/01/15 04:16:56;;;;;;;0.30;0.30;;;12.80;1.00;;;;;;5037560;28;20532;-54
2023/01/15 04:19:22;;;;;;;0.33;0.27;;;12.90;1.00;;;;;;5036968;28;20478;-54
2023/01/15 04:21:47;;;;;;;0.70;0.50;;;12.80;1.00;;;;;;5036908;28;20188;-55
2023/01/15 04:24:13;;;;;;;0.40;0.30;;;12.80;1.00;;;;;;5037551;28;20194;-55
2023/01/15 04:26:39;;;;;;;0.40;0.33;;;12.80;1.00;;;;;;5044237;28;20218;-55
2023/01/15 04:29:04;;;;;;;0.60;0.40;;;12.70;1.00;;;;;;5050004;28;20278;-55
2023/01/15 04:31:32;;;;;;;0.40;0.40;;;12.70;1.00;;;;;;5048408;28;20236;-55
2023/01/15 04:33:58;;;;;;;0.30;0.30;;;12.70;1.00;;;;;;5039509;28;20525;-55
2023/01/15 04:36:24;;;;;;;2.00;0.50;;;12.70;1.00;;;;;;5036050;28;20960;-55
2023/01/15 04:38:49;;;;;;;1.50;0.40;;;12.70;1.00;;;;;;5036434;28;20519;-55
2023/01/15 04:44:05;;;;;;;0.30;0.30;;;12.70;1.00;;;;;;5044297;28;20284;-55
2023/01/15 04:46:31;;;;;;;0.37;0.30;;;12.70;1.00;;;;;;5045904;28;20457;-55
2023/01/15 04:48:57;;;;;;;0.40;0.40;;;12.60;1.00;;;;;;5048617;28;21096;-54
2023/01/15 04:51:23;;;;;;;0.40;0.40;;;12.60;1.00;;;;;;5043595;28;20462;-54
2023/01/15 04:53:49;;;;;;;0.60;0.60;;;12.60;1.00;;;;;;5047602;28;20316;-55
2023/01/15 04:56:15;;;;;;;1.30;1.20;;;12.50;1.00;;;;;;5048741;28;20460;-55
2023/01/15 04:58:40;;;;;;;2.80;1.60;;;12.40;1.00;;;;;;5036242;28;20653;-55
2023/01/15 05:01:13;;;;;;;1.70;1.60;;;12.30;1.00;;;;;;5036211;28;20475;-55
2023/01/15 05:03:39;;;;;;;1.60;1.50;;;12.10;1.00;;;;;;5050557;28;20192;-54
2023/01/15 05:06:05;;;;;;;1.80;1.70;;;12.00;1.00;;;;;;5036132;28;20448;-56
2023/01/15 05:08:31;;;;;;;1.43;1.33;;;12.00;1.00;;;;;;5035964;28;20449;-56
2023/01/15 05:11:04;;;;;;;2.47;1.40;;;11.90;1.00;;;;;;5034697;28;20496;-55
2023/01/15 05:13:32;;;;;;;1.50;1.40;;;11.80;1.00;;;;;;5037362;28;20451;-56
2023/01/15 05:16:20;;;;;;;1.70;1.60;;;11.80;1.00;;;;;;5036209;28;21035;-55
2023/01/15 05:18:46;;;;;;;1.40;1.30;;;11.80;1.00;;;;;;5046540;28;20424;-54
2023/01/15 05:21:21;;;;;;;1.70;1.60;;;11.90;1.00;;;;;;5041894;28;20795;-55
2023/01/15 05:23:49;;;;;;;1.27;1.17;;;11.80;1.00;;;;;;5034552;28;20835;-54
2023/01/15 05:26:15;;;;;;;2.10;1.40;;;11.80;1.00;;;;;;5037064;28;20459;-55
2023/01/15 05:28:41;;;;;;;1.67;1.57;;;11.80;1.00;;;;;;5035275;28;20434;-56
2023/01/15 05:31:13;;;;;;;1.57;1.47;;;11.80;1.00;;;;;;5034853;28;20449;-56
2023/01/15 05:33:39;;;;;;;1.50;1.17;;;11.80;1.00;;;;;;5036443;28;20496;-55
2023/01/15 05:36:08;;;;;;;1.47;1.37;;;11.80;1.00;;;;;;5033822;28;20464;-54
2023/01/15 05:38:34;;;;;;;1.97;1.30;;;11.80;1.00;;;;;;5040337;28;20490;-55
2023/01/15 05:41:47;;;;;;;2.80;1.20;;;11.80;1.00;;;;;;5041458;28;20450;-54
2023/01/15 05:43:52;;;;;;;1.23;1.13;;;11.80;1.00;;;;;;5048394;28;20257;-54
2023/01/15 05:46:18;;;;;;;1.10;1.00;;;11.90;1.00;;;;;;5048228;28;20491;-55
2023/01/15 05:48:44;;;;;;;3.37;1.30;;;11.90;1.00;;;;;;5046751;28;20424;-55
2023/01/15 05:51:09;;;;;;;1.60;1.50;;;11.90;1.00;;;;;;5048443;28;20187;-54
2023/01/15 05:53:35;;;;;;;1.17;1.00;;;11.90;1.00;;;;;;5036288;28;20179;-54
2023/01/15 05:56:02;;;;;;;0.70;0.70;;;11.90;1.00;;;;;;5032364;28;20194;-54
2023/01/15 05:58:27;;;;;;;1.50;1.40;;;11.90;1.00;;;;;;5042940;28;20196;-56
2023/01/15 06:00:53;;;;;;;1.33;0.80;;;12.00;1.00;;;;;;5042881;28;20424;-55
2023/01/15 06:03:21;;;;;;;1.90;1.20;;;12.00;1.00;;;;;;5033772;28;20197;-56
2023/01/15 06:05:54;;;;;;;2.00;1.07;;;12.00;1.00;;;;;;5036615;28;20886;-56
2023/01/15 06:08:20;;;;;;;1.03;0.87;;;12.00;1.00;;;;;;5034105;28;20443;-56
2023/01/15 06:10:47;;;;;;;1.03;0.93;;;12.00;1.00;;;;;;5037979;28;20442;-55
2023/01/15 06:13:14;;;;;;;0.93;0.90;;;12.10;1.00;;;;;;5041631;28;20567;-54
2023/01/15 06:15:40;;;;;;;0.90;0.90;;;12.10;1.00;;;;;;5040967;28;20428;-55
2023/01/15 06:18:06;;;;;;;0.80;0.70;;;11.90;1.00;;;;;;5040819;28;20461;-56
2023/01/15 06:20:35;;;;;;;2.30;0.80;;;12.10;1.00;;;;;;5041354;28;20454;-55
2023/01/15 06:23:00;;;;;;;0.83;0.63;;;12.00;1.00;;;;;;5040663;28;20293;-54
2023/01/15 06:25:26;;;;;;;1.40;0.90;;;12.00;1.00;;;;;;5041741;28;20580;-54
2023/01/15 06:27:52;;;;;;;0.67;0.67;;;12.10;1.00;;;;;;5041442;28;20189;-54
2023/01/15 06:30:17;;;;;;;1.17;0.80;;;12.10;1.00;;;;;;5041757;28;20189;-54
2023/01/15 06:32:43;;;;;;;0.60;0.40;;;12.20;1.00;;;;;;5045319;28;20189;-55
2023/01/15 06:35:09;;;;;;;0.63;0.37;;;12.30;1.00;;;;;;5044434;28;20187;-54
2023/01/15 06:37:35;;;;;;;0.50;0.40;;;12.40;1.00;;;;;;5041287;28;20188;-55
2023/01/15 06:40:00;;;;;;;0.43;0.30;;;12.60;1.00;;;;;;5040704;28;22732;-54
2023/01/15 06:47:56;;;;;;;0.30;0.20;;;11.50;1.00;;;;;;5042350;28;20558;-55
2023/01/15 06:50:24;;;;;;;0.40;0.30;;;11.20;1.00;;;;;;5041784;28;20906;-58
2023/01/15 06:52:50;;;;;;;0.40;0.40;;;11.10;1.00;;;;;;5040087;28;20423;-54
2023/01/15 06:55:17;;;;;;;0.60;0.50;;;10.70;1.00;;;;;;5043059;28;21357;-56
2023/01/15 06:57:43;;;;;;;0.30;0.30;;;10.40;1.00;;;;;;5041223;28;20448;-54
2023/01/15 07:00:10;;;;;;;3.40;0.40;;;10.10;1.00;;;;;;5040725;28;20460;-55
2023/01/15 07:02:37;;;;;;;0.50;0.40;;;9.60;1.00;;;;;;5047143;28;20927;-55
2023/01/15 07:05:03;;;;;;;0.77;0.47;;;9.40;1.00;;;;;;5083802;28;20507;-55
2023/01/15 07:07:29;;;;;;;0.50;0.50;;;9.20;1.00;;;;;;5050704;28;20472;-56
2023/01/15 07:09:55;;;;;;;0.50;0.50;;;8.90;1.00;;;;;;5051797;28;20487;-55
2023/01/15 07:12:21;;;;;;;0.90;0.70;;;8.70;1.00;;;;;;5046648;28;22030;-55
2023/01/15 07:14:47;;;;;;;0.70;0.40;;;8.70;1.00;;;;;;5045617;28;20197;-56
2023/01/15 07:17:13;;;;;;;2.10;0.57;;;8.60;1.00;;;;;;5051920;28;20937;-55
2023/01/15 07:19:39;;;;;;;0.83;0.77;;;8.60;1.00;;;;;;5042736;28;20269;-56
2023/01/15 07:22:05;;;;;;;0.80;0.80;;;8.70;1.00;;;;;;5054849;28;20217;-55
2023/01/15 07:24:31;;;;;;;0.93;0.90;;;8.80;1.00;;;;;;5038812;28;20448;-55
2023/01/15 07:26:57;;;;;;;1.77;1.00;;;8.80;1.00;;;;;;5035952;28;20542;-56
2023/01/15 07:29:23;;;;;;;0.90;0.67;;;8.70;1.00;;;;;;5040223;28;20459;-54
2023/01/15 07:31:49;;;;;;;1.10;0.77;;;8.80;1.00;;;;;;5039670;28;20200;-55
2023/01/15 07:34:15;;;;;;;0.40;0.40;;;8.80;1.00;;;;;;5036675;28;20194;-55
2023/01/15 07:36:41;;;;;;;0.50;0.50;;;8.70;1.00;;;;;;5037080;28;20445;-54
2023/01/15 07:39:09;;;;;;;0.47;0.47;;;8.80;1.00;;;;;;5037483;28;20253;-54
2023/01/15 07:49:59;;;;;;;1.80;0.70;;;8.70;1.00;;;;;;5039343;28;21104;-55
2023/01/15 07:52:24;;;;;;;0.93;0.80;;;8.70;1.00;;;;;;5042522;28;20450;-56
2023/01/15 07:54:50;;;;;;;0.90;0.90;;;8.80;1.00;;;;;;5037213;28;20969;-55
2023/01/15 07:57:19;;;;;;;1.23;1.13;;;8.70;1.00;;;;;;5036953;28;20188;-55
2023/01/15 07:59:44;;;;;;;1.23;1.00;;;8.70;1.00;;;;;;5037651;28;20201;-54
2023/01/15 08:02:11;;;;;;;0.70;0.70;;;8.60;1.00;;;;;;5036916;28;20449;-55
2023/01/15 08:04:37;;;;;;;0.83;0.83;;;8.40;1.00;;;;;;5043943;28;20193;-55
2023/01/15 08:07:04;;;;;;;1.10;0.90;;;8.40;1.00;;;;;;5048759;28;20965;-55
2023/01/15 08:09:30;;;;;;;1.43;0.67;;;8.40;1.00;;;;;;5049825;28;20191;-56
2023/01/15 08:17:27;;;;;;;0.83;0.77;;;8.10;1.00;;;;;;5036191;28;20451;-54
2023/01/15 08:19:53;;;;;;;2.50;0.90;;;8.00;1.00;;;;;;5043047;28;20837;-55
2023/01/15 08:22:19;;;;;;;2.13;1.17;;;8.00;1.00;;;;;;5036354;28;20194;-55
2023/01/15 08:24:44;;;;;;;1.80;0.90;;;7.80;1.00;;;;;;5036553;28;20220;-54
2023/01/15 08:27:12;;;;;;;1.60;1.03;;;7.90;1.00;;;;;;5039364;28;20256;-54
2023/01/15 08:29:38;;;;;;;1.03;0.83;;;8.00;1.00;;;;;;5035267;28;20190;-53
2023/01/15 08:32:04;;;;;;;3.30;0.80;;;8.00;1.00;;;;;;5037265;28;20981;-55
2023/01/15 08:34:30;;;;;;;1.00;1.00;;;7.90;1.00;;;;;;5037572;28;20448;-54
2023/01/15 08:36:58;;;;;;;0.80;0.70;;;7.90;1.00;;;;;;5035670;28;20576;-56
2023/01/15 08:39:25;;;;;;;1.03;1.03;;;7.80;1.00;;;;;;5046627;28;20195;-56
2023/01/15 08:41:51;;;;;;;3.53;1.50;;;7.80;1.00;;;;;;5049198;28;20462;-54
2023/01/15 08:44:17;;;;;;;1.73;1.10;;;8.00;1.00;;;;;;5045214;28;20456;-56
2023/01/15 08:46:42;;;;;;;2.43;1.03;;;8.20;1.00;;;;;;5049246;28;20206;-55
2023/01/15 08:49:09;;;;;;;0.80;0.80;;;8.30;1.00;;;;;;5047185;28;20222;-54
2023/01/15 08:51:35;;;;;;;1.70;1.20;;;8.50;1.00;;;;;;5048378;28;20188;-55
2023/01/15 08:54:01;;;;;;;1.93;1.30;;;8.50;1.00;;;;;;5048909;28;20453;-55
2023/01/15 08:56:27;;;;;;;1.20;0.80;;;8.60;1.00;;;;;;5049841;28;20191;-55
2023/01/15 08:58:52;;;;;;;3.47;1.00;;;8.50;1.00;;;;;;5050321;28;20187;-56
2023/01/15 09:01:18;;;;;;;1.50;1.40;;;8.70;1.00;;;;;;5048967;28;20812;-54
2023/01/15 09:03:44;;;;;;;1.80;1.10;;;8.60;1.00;;;;;;5049196;28;20214;-55
2023/01/15 09:06:10;;;;;;;1.20;1.00;;;8.60;1.00;;;;;;5048265;28;20218;-54
2023/01/15 09:08:36;;;;;;;5.77;4.00;;;8.50;1.00;;;;;;5045862;28;20702;-55
2023/01/15 09:11:04;;;;;;;0.97;0.70;;;8.40;1.00;;;;;;5048705;28;21001;-55
2023/01/15 09:13:31;;;;;;;2.30;1.00;;;8.40;1.00;;;;;;5048126;28;20537;-55
2023/01/15 09:16:01;;;;;;;1.63;0.87;;;8.50;1.00;;;;;;5049095;28;20448;-54
2023/01/15 09:18:27;;;;;;;1.23;0.80;;;8.60;1.00;;;;;;5046352;28;20452;-56
2023/01/15 09:20:53;;;;;;;0.70;0.70;;;8.60;1.00;;;;;;5047773;28;20950;-56
2023/01/15 09:23:18;;;;;;;1.57;1.13;;;8.60;1.00;;;;;;5048192;28;20185;-55
2023/01/15 09:25:59;;;;;;;1.20;1.10;;;8.70;1.00;;;;;;5046594;28;20215;-56
2023/01/15 09:28:26;;;;;;;0.80;0.80;;;8.80;1.00;;;;;;5047241;28;20240;-54
2023/01/15 09:30:51;;;;;;;1.37;1.00;;;8.60;1.00;;;;;;5048920;28;20454;-55
2023/01/15 09:33:17;;;;;;;3.40;1.50;;;8.50;1.00;;;;;;5048633;28;20439;-56
2023/01/15 09:35:43;;;;;;;4.10;1.30;;;8.50;1.00;;;;;;5047875;28;20190;-55
2023/01/15 09:38:17;;;;;;;1.30;1.20;;;8.60;1.00;;;;;;5050148;28;20456;-54
2023/01/15 09:40:55;;;;;;;1.37;1.27;;;8.70;1.00;;;;;;5046204;28;20477;-54
2023/01/15 09:43:40;;;;;;;1.40;1.30;;;8.80;1.00;;;;;;5047777;28;20891;-55
2023/01/15 09:46:24;;;;;;;2.27;1.30;;;8.80;1.00;;;;;;5047371;28;20476;-55
2023/01/15 09:49:18;;;;;;;2.13;1.70;;;8.90;1.00;;;;;;5046331;28;20473;-55
2023/01/15 09:51:59;;;;;;;1.23;0.70;;;8.80;1.00;;;;;;5046419;28;20460;-56
2023/01/15 09:55:01;;;;;;;2.20;1.27;;;8.70;1.00;;;;;;5047039;28;20449;-55
2023/01/15 09:57:28;;;;;;;1.30;1.20;;;8.70;1.00;;;;;;5026263;28;20434;-55
2023/01/15 10:00:01;;;;;;;1.40;1.30;;;8.80;1.00;;;;;;5046846;28;20456;-55
2023/01/15 10:02:41;;;;;;;0.90;0.90;;;8.90;1.00;;;;;;5046704;28;20452;-56
2023/01/15 10:05:29;;;;;;;1.50;1.40;;;9.20;1.00;;;;;;5046169;28;20423;-56
2023/01/15 10:08:01;;;;;;;1.23;0.90;;;9.20;1.00;;;;;;5046639;28;20457;-55
2023/01/15 10:10:33;;;;;;;1.30;0.97;;;9.20;1.00;;;;;;5044859;28;20443;-55
2023/01/15 10:13:09;;;;;;;1.10;1.00;;;9.30;1.00;;;;;;5048308;28;20978;-56
2023/01/15 10:15:43;;;;;;;1.00;0.90;;;9.20;1.00;;;;;;5046517;28;20813;-54
2023/01/15 10:18:19;;;;;;;1.20;1.10;;;9.20;1.00;;;;;;5046770;28;20481;-55
2023/01/15 10:21:13;;;;;;;1.20;1.13;;;9.30;1.00;;;;;;5048579;28;20446;-54
2023/01/15 10:24:16;;;;;;;1.30;1.20;;;9.30;1.00;;;;;;5045487;28;20478;-55
2023/01/15 10:26:54;;;;;;;1.20;1.10;;;9.20;1.00;;;;;;5047686;28;20502;-55
2023/01/15 10:29:48;;;;;;;1.07;1.00;;;9.30;1.00;;;;;;5044221;28;20929;-54
2023/01/15 10:32:33;;;;;;;1.13;0.97;;;9.50;1.00;;;;;;5046299;28;20460;-54
2023/01/15 10:35:20;;;;;;;1.30;1.00;;;9.40;1.00;;;;;;5045028;28;20463;-56
2023/01/15 10:38:15;;;;;;;1.43;1.20;;;9.50;1.00;;;;;;5048320;28;20424;-55
2023/01/15 10:41:14;;;;;;;1.20;0.90;;;9.50;1.00;;;;;;5048451;28;20506;-54
2023/01/15 10:44:00;;;;;;;1.27;0.77;;;9.40;1.00;;;;;;5054095;28;20477;-54
2023/01/15 10:46:32;;;;;;;1.40;1.10;;;9.50;1.00;;;;;;5045986;28;20565;-57
2023/01/15 10:49:16;;;;;;;0.87;0.80;;;9.40;1.00;;;;;;5047813;28;20471;-54
2023/01/15 10:51:49;;;;;;;0.93;0.70;;;9.40;1.00;;;;;;5047277;28;20488;-55
2023/01/15 10:54:25;;;;;;;1.20;0.90;;;9.50;1.00;;;;;;5050258;28;21028;-55
2023/01/15 10:57:16;;;;;;;1.47;0.70;;;9.40;1.00;;;;;;5051271;28;20454;-55
2023/01/15 11:00:00;;;;;;;0.80;0.63;;;9.30;1.00;;;;;;5047397;28;20476;-55
2023/01/15 11:02:57;;;;;;;0.77;0.57;;;9.30;1.00;;;;;;5050465;28;20456;-55
2023/01/15 11:05:23;;;;;;;0.47;0.30;;;9.20;1.00;;;;;;5058611;28;20910;-55
2023/01/15 11:07:50;;;;;;;1.00;0.50;;;9.30;1.00;;;;;;5049060;28;20445;-55
2023/01/15 11:10:20;;;;;;;0.80;0.40;;;9.30;1.00;;;;;;5051303;28;20275;-55
2023/01/15 11:21:39;;;;;;;0.60;0.50;;;9.20;1.00;;;;;;5052107;28;20419;-54
2023/01/15 11:24:14;;;;;;;0.73;0.53;;;9.20;1.00;;;;;;5054244;28;20472;-55
2023/01/15 11:26:40;;;;;;;2.30;0.70;;;9.00;1.00;;;;;;5049941;28;20471;-54
2023/01/15 11:29:19;;;;;;;0.87;0.60;;;9.00;1.00;;;;;;5050343;28;20502;-55
2023/01/15 11:31:45;;;;;;;0.40;0.40;;;9.20;1.00;;;;;;5049891;28;20214;-54
2023/01/15 11:34:20;;;;;;;2.20;1.50;;;9.10;1.00;;;;;;5051259;28;20473;-55
2023/01/15 11:36:46;;;;;;;1.20;0.63;;;9.10;1.00;;;;;;5050377;28;20235;-55
2023/01/15 11:39:26;;;;;;;1.63;0.70;;;9.10;1.00;;;;;;5051428;28;20448;-55
2023/01/15 11:53:13;;;;;;;1.37;0.80;;;9.60;1.00;;;;;;5049819;28;20514;-55
2023/01/15 11:55:39;;;;;;;0.70;0.60;;;9.50;1.00;;;;;;5049762;28;20473;-55
2023/01/15 11:58:08;;;;;;;0.47;0.43;;;9.50;1.00;;;;;;5051067;28;20463;-55
2023/01/15 12:00:41;;;;;;;0.77;0.50;;;9.70;1.00;;;;;;5050599;28;20214;-55
2023/01/15 12:03:18;;;;;;;1.43;0.60;;;9.70;1.00;;;;;;5049854;28;20445;-56
2023/01/15 12:05:48;;;;;;;0.90;0.70;;;9.80;1.00;;;;;;5048642;28;20464;-56
2023/01/15 12:08:41;;;;;;;12.30;8.00;;;9.90;1.00;;;;;;5049534;28;20542;-56
2023/01/15 12:11:30;;;;;;;6.20;4.83;;;10.00;1.00;;;;;;5048985;28;20445;-55
2023/01/15 12:14:17;;;;;;;3.47;2.70;;;10.00;1.00;;;;;;5048168;28;20798;-55
2023/01/15 12:17:10;;;;;;;2.73;1.80;;;10.00;1.00;;;;;;5049850;28;20447;-55
2023/01/15 12:19:52;;;;;;;2.00;1.63;;;10.00;1.00;;;;;;5048507;28;20455;-55
2023/01/15 12:22:41;;;;;;;1.30;0.60;;;10.10;1.00;;;;;;5050627;28;21249;-57
2023/01/15 12:25:32;;;;;;;1.00;0.83;;;10.10;1.00;;;;;;5050353;28;20423;-54
2023/01/15 12:28:19;;;;;;;0.50;0.50;;;10.00;1.00;;;;;;5049905;28;20530;-56
2023/01/15 12:30:57;;;;;;;0.80;0.60;;;10.10;1.00;;;;;;5049459;28;20873;-55
2023/01/15 12:33:29;;;;;;;0.80;0.80;;;10.10;1.00;;;;;;5047579;28;21077;-55
2023/01/15 12:36:16;;;;;;;0.60;0.60;;;10.20;1.00;;;;;;5045413;28;20445;-56
2023/01/15 12:39:06;;;;;;;0.70;0.70;;;10.20;1.00;;;;;;5050372;28;20497;-55
2023/01/15 12:47:28;;;;;;;0.70;0.50;;;10.30;1.00;;;;;;5049176;28;20479;-55
2023/01/15 12:50:22;;;;;;;1.00;0.50;;;10.30;1.00;;;;;;5049520;28;20864;-56
2023/01/15 12:52:56;;;;;;;0.90;0.67;;;10.40;1.00;;;;;;5044930;28;20459;-55
2023/01/15 12:55:27;;;;;;;1.37;0.63;;;10.40;1.00;;;;;;5047885;28;20443;-54
2023/01/15 12:58:01;;;;;;;1.20;0.70;;;10.40;1.00;;;;;;5056277;28;20455;-56
2023/01/15 13:00:41;;;;;;;0.80;0.70;;;10.30;1.00;;;;;;5066148;28;20457;-60
2023/01/15 13:03:18;;;;;;;0.50;0.47;;;10.30;1.00;;;;;;5050873;28;20507;-60
2023/01/15 13:05:55;;;;;;;2.30;0.67;;;10.30;1.00;;;;;;5049883;28;20503;-58
2023/01/15 13:08:53;;;;;;;1.03;0.70;;;10.20;1.00;;;;;;5047315;28;20439;-57
2023/01/15 13:11:19;;;;;;;0.63;0.63;;;10.00;1.00;;;;;;5049849;28;20436;-58
2023/01/15 13:13:56;;;;;;;2.90;0.90;;;10.00;1.00;;;;;;5053284;28;20829;-57
2023/01/15 13:16:42;;;;;;;2.47;0.70;;;9.90;1.00;;;;;;5057185;28;20691;-58
2023/01/15 13:19:35;;;;;;;1.00;0.70;;;9.90;1.00;;;;;;5026077;28;20444;-59
2023/01/15 13:22:09;;;;;;;0.80;0.70;;;9.90;1.00;;;;;;5054841;28;20572;-59
2023/01/15 13:25:00;;;;;;;0.90;0.80;;;10.00;1.00;;;;;;5048310;28;20445;-57
2023/01/15 13:27:29;;;;;;;1.53;1.40;;;9.80;1.00;;;;;;5048752;28;20504;-57
2023/01/15 13:30:22;;;;;;;1.30;1.17;;;9.90;1.00;;;;;;5049491;28;20526;-58
2023/01/15 13:32:52;;;;;;;1.10;1.00;;;9.90;1.00;;;;;;5048877;28;20417;-57
2023/01/15 13:35:39;;;;;;;0.80;0.80;;;10.00;1.00;;;;;;5048676;28;20451;-58
2023/01/15 13:38:10;;;;;;;1.13;0.83;;;10.00;1.00;;;;;;5042319;28;20514;-58
2023/01/15 13:40:43;;;;;;;0.50;0.50;;;10.00;1.00;;;;;;5044266;28;20477;-58
2023/01/15 13:43:20;;;;;;;0.87;0.60;;;9.80;1.00;;;;;;5045428;28;20476;-55
2023/01/15 13:45:49;;;;;;;1.13;0.60;;;9.70;1.00;;;;;;5043450;28;22734;-56
2023/01/15 13:48:22;;;;;;;0.50;0.50;;;9.70;1.00;;;;;;5048914;28;20453;-57
2023/01/15 13:50:58;;;;;;;0.50;0.50;;;9.60;1.00;;;;;;5046631;28;20488;-56
2023/01/15 13:53:38;;;;;;;0.50;0.40;;;9.40;1.00;;;;;;5046333;28;20507;-55
2023/01/15 13:56:08;;;;;;;0.60;0.50;;;9.30;1.00;;;;;;5048031;28;20457;-57
2023/01/15 13:58:38;;;;;;;0.50;0.47;;;9.20;1.00;;;;;;5053845;28;20491;-57
2023/01/15 14:01:30;;;;;;;0.63;0.60;;;9.30;1.00;;;;;;5047553;28;20779;-54
2023/01/15 14:04:11;;;;;;;0.60;0.50;;;9.50;1.00;;;;;;5047843;28;20950;-57
2023/01/15 14:06:51;;;;;;;0.87;0.60;;;9.50;1.00;;;;;;5048918;28;21008;-56
2023/01/15 14:09:19;;;;;;;0.67;0.53;;;9.60;1.00;;;;;;5048203;28;20451;-54
2023/01/15 14:12:03;;;;;;;0.60;0.60;;;9.60;1.00;;;;;;5046959;28;20441;-55
2023/01/15 14:14:43;;;;;;;0.57;0.50;;;9.70;1.00;;;;;;5046893;28;20444;-55
2023/01/15 14:17:27;;;;;;;0.90;0.30;;;9.50;1.00;;;;;;5048838;28;20945;-55